Time;durP1;ratioP1;P1;durP2;ratioP2;P2;SDS_P1;SDS_P2;PMS_P1;PMS_P2;Temp;Humidity;BMP_temperature;BMP_pressure;BME280_temperature;BME280_humidity;BME280_pressure;Samples;Min_cycle;Max_cycle;Signal;HPM_P1;HPM_P2
2021/12/05 00:18:16;;;;;;;;;;;3.90;99.90;;;;;;5057518;27;20067;-70
2021/12/05 00:23:32;;;;;;;;;;;3.90;99.90;;;;;;5075679;27;20281;-70
2021/12/05 00:26:01;;;;;;;;;;;3.90;99.90;;;;;;5039196;27;21133;-70
2021/12/05 00:34:18;;;;;;;;;;;3.80;99.90;;;;;;5052029;28;20074;-70
2021/12/05 01:00:08;;;;;;;;;;;3.60;99.90;;;;;;5052039;27;20272;-73
2021/12/05 01:11:11;;;;;;;;;;;3.70;99.90;;;;;;5063536;28;20075;-71
2021/12/05 01:13:44;;;;;;;;;;;3.60;99.90;;;;;;5063784;28;21238;-69
2021/12/05 01:16:12;;;;;;;;;;;3.60;99.90;;;;;;5073510;28;20109;-71
2021/12/05 01:18:40;;;;;;;;;;;3.70;99.90;;;;;;5067347;28;20125;-70
2021/12/05 01:21:10;;;;;;;;;;;3.70;99.90;;;;;;5069376;28;20359;-70
2021/12/05 01:23:47;;;;;;;;;;;3.60;99.90;;;;;;5066066;28;21244;-71
2021/12/05 01:26:20;;;;;;;;;;;3.50;99.90;;;;;;5067498;28;20098;-69
2021/12/05 01:31:48;;;;;;;;;;;3.60;99.90;;;;;;5048507;28;20077;-70
2021/12/05 01:34:33;;;;;;;;;;;3.50;99.90;;;;;;5064301;28;21218;-70
2021/12/05 01:37:11;;;;;;;;;;;3.50;99.90;;;;;;5069737;28;20221;-70
2021/12/05 01:39:55;;;;;;;;;;;3.40;99.90;;;;;;5070769;28;20283;-70
2021/12/05 01:43:02;;;;;;;;;;;3.40;99.90;;;;;;5063930;28;20075;-70
2021/12/05 01:54:14;;;;;;;;;;;3.40;99.90;;;;;;5061527;28;20055;-70
2021/12/05 01:57:12;;;;;;;;;;;3.40;99.90;;;;;;5065057;28;20076;-71
2021/12/05 02:02:52;;;;;;;;;;;3.30;99.90;;;;;;5045910;28;20055;-70
2021/12/05 02:33:19;;;;;;;;;;;3.70;99.90;;;;;;5048422;28;20064;-71
2021/12/05 02:39:05;;;;;;;;;;;3.70;99.90;;;;;;5053825;28;20062;-70
2021/12/05 02:41:37;;;;;;;;;;;3.70;99.90;;;;;;5057303;28;20068;-70
2021/12/05 02:44:11;;;;;;;;;;;3.70;99.90;;;;;;5058007;28;20067;-71
2021/12/05 02:46:39;;;;;;;;;;;3.60;99.90;;;;;;5053212;28;20077;-70
2021/12/05 02:49:10;;;;;;;;;;;3.60;99.90;;;;;;5052572;28;20168;-71
2021/12/05 02:51:37;;;;;;;;;;;3.50;99.90;;;;;;5052947;28;21087;-71
2021/12/05 02:54:10;;;;;;;;;;;3.50;99.90;;;;;;5048566;28;20068;-71
2021/12/05 02:56:41;;;;;;;;;;;3.40;99.90;;;;;;5054934;28;20076;-71
2021/12/05 02:59:21;;;;;;;;;;;3.40;99.90;;;;;;5052397;28;20196;-71
2021/12/05 03:01:53;;;;;;;;;;;3.40;99.90;;;;;;5057094;28;20068;-70
2021/12/05 03:04:23;;;;;;;;;;;3.40;99.90;;;;;;5059998;28;20184;-69
2021/12/05 03:06:52;;;;;;;;;;;3.50;99.90;;;;;;5034124;28;20116;-70
2021/12/05 03:09:23;;;;;;;;;;;3.50;99.90;;;;;;5043854;28;20160;-70
2021/12/05 03:11:51;;;;;;;;;;;3.60;99.90;;;;;;5047846;28;20093;-70
2021/12/05 03:14:18;;;;;;;;;;;3.50;99.90;;;;;;5055510;28;21011;-70
2021/12/05 03:16:45;;;;;;;;;;;3.40;99.90;;;;;;5035369;28;20105;-70
2021/12/05 03:19:13;;;;;;;;;;;3.40;99.90;;;;;;5053950;28;21128;-70
2021/12/05 03:21:41;;;;;;;;;;;3.40;99.90;;;;;;5054748;28;20083;-71
2021/12/05 03:24:09;;;;;;;;;;;3.50;99.90;;;;;;5053673;28;21322;-71
2021/12/05 03:26:40;;;;;;;;;;;3.40;99.90;;;;;;5048483;28;20194;-70
2021/12/05 03:29:08;;;;;;;;;;;3.40;99.90;;;;;;5047580;28;20086;-70
2021/12/05 03:31:38;;;;;;;;;;;3.40;99.90;;;;;;5056511;28;20106;-71
2021/12/05 03:34:08;;;;;;;;;;;3.40;99.90;;;;;;5051174;28;20076;-70
2021/12/05 03:36:36;;;;;;;;;;;3.30;99.90;;;;;;5053281;28;20089;-70
2021/12/05 03:39:06;;;;;;;;;;;3.40;99.90;;;;;;5049925;28;21168;-70
2021/12/05 03:41:33;;;;;;;;;;;3.40;99.90;;;;;;5055688;28;20160;-71
2021/12/05 03:44:02;;;;;;;;;;;3.30;99.90;;;;;;5059313;28;20067;-70
2021/12/05 03:46:31;;;;;;;;;;;3.40;99.90;;;;;;5049042;28;20081;-71
2021/12/05 03:49:00;;;;;;;;;;;3.40;99.90;;;;;;5046771;28;20108;-70
2021/12/05 03:51:29;;;;;;;;;;;3.40;99.90;;;;;;5033580;28;20083;-71
2021/12/05 03:53:57;;;;;;;;;;;3.50;99.90;;;;;;5035607;28;20267;-70
2021/12/05 03:56:27;;;;;;;;;;;3.50;99.90;;;;;;5031281;28;20076;-70
2021/12/05 03:58:56;;;;;;;;;;;3.50;99.90;;;;;;5034421;28;20076;-70
2021/12/05 04:01:26;;;;;;;;;;;3.50;99.90;;;;;;5038489;28;20074;-70
2021/12/05 04:03:55;;;;;;;;;;;3.50;99.90;;;;;;5027723;28;20102;-69
2021/12/05 04:06:25;;;;;;;;;;;3.50;99.90;;;;;;5024701;28;20068;-69
2021/12/05 04:08:53;;;;;;;;;;;3.50;99.90;;;;;;5035052;28;20112;-70
2021/12/05 04:11:26;;;;;;;;;;;3.50;99.90;;;;;;5023857;28;20166;-70
2021/12/05 04:13:53;;;;;;;;;;;3.50;99.90;;;;;;5036022;28;20169;-70
2021/12/05 04:16:22;;;;;;;;;;;3.50;99.90;;;;;;5037709;28;21171;-70
2021/12/05 04:18:51;;;;;;;;;;;3.50;99.90;;;;;;5024967;28;21202;-70
2021/12/05 04:21:18;;;;;;;;;;;3.50;99.90;;;;;;5039041;28;20090;-71
2021/12/05 04:23:46;;;;;;;;;;;3.40;99.90;;;;;;5024802;28;20084;-69
2021/12/05 04:26:15;;;;;;;;;;;3.50;99.90;;;;;;5037087;28;21419;-70
2021/12/05 04:28:43;;;;;;;;;;;3.50;99.90;;;;;;5038903;28;20082;-71
2021/12/05 04:31:11;;;;;;;;;;;3.40;99.90;;;;;;5032268;28;20106;-70
2021/12/05 04:33:40;;;;;;;;;;;3.40;99.90;;;;;;5038251;28;20068;-69
2021/12/05 04:36:10;;;;;;;;;;;3.40;99.90;;;;;;5037160;28;21149;-71
2021/12/05 04:38:37;;;;;;;;;;;3.40;99.90;;;;;;5030612;28;21038;-70
2021/12/05 04:41:05;;;;;;;;;;;3.40;99.90;;;;;;5034728;28;21132;-70
2021/12/05 04:43:37;;;;;;;;;;;3.40;99.90;;;;;;5032981;28;20231;-70
2021/12/05 04:46:04;;;;;;;;;;;3.40;99.90;;;;;;5035950;28;20083;-70
2021/12/05 04:48:32;;;;;;;;;;;3.30;99.90;;;;;;5032951;28;20068;-70
2021/12/05 04:50:59;;;;;;;;;;;3.40;99.90;;;;;;5052332;28;20103;-70
2021/12/05 04:53:29;;;;;;;;;;;3.30;99.90;;;;;;5055320;28;20083;-70
2021/12/05 04:55:57;;;;;;;;;;;3.20;99.90;;;;;;5048409;28;20074;-70
2021/12/05 04:58:24;;;;;;;;;;;3.30;99.90;;;;;;5049284;28;20059;-70
2021/12/05 05:00:53;;;;;;;;;;;3.30;99.90;;;;;;5055831;28;20177;-69
2021/12/05 05:03:20;;;;;;;;;;;3.30;99.90;;;;;;5046528;28;20442;-69
2021/12/05 05:05:49;;;;;;;;;;;3.30;99.90;;;;;;5046398;28;20068;-69
2021/12/05 05:08:16;;;;;;;;;;;3.20;99.90;;;;;;5060020;28;20084;-70
2021/12/05 05:10:45;;;;;;;;;;;3.20;99.90;;;;;;5050741;28;20067;-71
2021/12/05 05:13:12;;;;;;;;;;;3.20;99.90;;;;;;5057690;28;21063;-71
2021/12/05 05:15:40;;;;;;;;;;;3.20;99.90;;;;;;5043082;28;20082;-70
2021/12/05 05:18:09;;;;;;;;;;;3.20;99.90;;;;;;5052512;28;20077;-70
2021/12/05 05:20:40;;;;;;;;;;;3.20;99.90;;;;;;5054288;28;21073;-70
2021/12/05 05:28:59;;;;;;;;;;;3.10;99.90;;;;;;5043201;28;21169;-70
2021/12/05 05:39:56;;;;;;;;;;;3.20;99.90;;;;;;5053817;28;20080;-70
2021/12/05 05:48:13;;;;;;;;;;;3.10;99.90;;;;;;5015484;28;20191;-71
2021/12/05 05:50:40;;;;;;;;;;;3.00;99.90;;;;;;5049227;28;20074;-70
2021/12/05 05:53:08;;;;;;;;;;;3.00;99.90;;;;;;5057644;28;20067;-71
2021/12/05 05:55:36;;;;;;;;;;;2.90;99.90;;;;;;5055753;28;20377;-70
2021/12/05 05:58:08;;;;;;;;;;;2.90;99.90;;;;;;5055172;28;20203;-70
2021/12/05 06:00:40;;;;;;;;;;;3.00;99.90;;;;;;5056313;28;20074;-70
2021/12/05 06:03:21;;;;;;;;;;;3.10;99.90;;;;;;5034262;28;20160;-69
2021/12/05 06:05:49;;;;;;;;;;;3.00;99.90;;;;;;5046620;28;20095;-70
2021/12/05 06:08:16;;;;;;;;;;;3.00;99.90;;;;;;5053916;28;20091;-70
2021/12/05 06:10:43;;;;;;;;;;;3.10;99.90;;;;;;5054333;28;20071;-71
2021/12/05 06:13:12;;;;;;;;;;;3.10;99.90;;;;;;5060295;28;20076;-71
2021/12/05 06:15:39;;;;;;;;;;;3.10;99.90;;;;;;5047457;28;20092;-70
2021/12/05 06:18:06;;;;;;;;;;;3.20;99.90;;;;;;5058924;28;20076;-70
2021/12/05 06:20:33;;;;;;;;;;;3.20;99.90;;;;;;5046290;28;20092;-70
2021/12/05 06:23:00;;;;;;;;;;;3.20;99.90;;;;;;5056309;28;20075;-69
2021/12/05 06:25:30;;;;;;;;;;;3.20;99.90;;;;;;5052287;28;20075;-69
2021/12/05 06:27:59;;;;;;;;;;;3.20;99.90;;;;;;5045683;28;20074;-70
2021/12/05 06:30:41;;;;;;;;;;;3.20;99.90;;;;;;5059059;28;21190;-69
2021/12/05 06:39:01;;;;;;;;;;;3.20;99.90;;;;;;5048664;28;20164;-71
2021/12/05 06:41:48;;;;;;;;;;;3.30;99.90;;;;;;5048742;28;20186;-75
2021/12/05 06:47:02;;;;;;;;;;;3.40;99.90;;;;;;5054985;28;20055;-70
2021/12/05 06:49:29;;;;;;;;;;;3.50;99.90;;;;;;5053055;28;20076;-70
2021/12/05 06:51:56;;;;;;;;;;;3.50;99.90;;;;;;5051418;28;20174;-70
2021/12/05 06:54:24;;;;;;;;;;;3.50;99.90;;;;;;5056125;28;21153;-70
2021/12/05 06:56:51;;;;;;;;;;;3.50;99.90;;;;;;5051702;28;20074;-70
2021/12/05 06:59:18;;;;;;;;;;;3.50;99.90;;;;;;5051438;28;21064;-70
2021/12/05 07:01:45;;;;;;;;;;;3.50;99.90;;;;;;5052374;28;20073;-70
2021/12/05 07:04:31;;;;;;;;;;;3.50;99.90;;;;;;5056048;28;20067;-70
2021/12/05 07:06:58;;;;;;;;;;;3.50;99.90;;;;;;5040286;28;20076;-70
2021/12/05 07:09:27;;;;;;;;;;;3.50;99.90;;;;;;5055379;28;21222;-70
2021/12/05 07:12:17;;;;;;;;;;;3.50;99.90;;;;;;5052363;28;21093;-71
2021/12/05 07:14:46;;;;;;;;;;;3.60;99.90;;;;;;5042856;28;20073;-70
2021/12/05 07:19:58;;;;;;;;;;;3.70;99.90;;;;;;5046756;28;20155;-70
2021/12/05 07:22:37;;;;;;;;;;;3.80;99.90;;;;;;5038128;28;20090;-70
2021/12/05 07:25:06;;;;;;;;;;;3.80;99.90;;;;;;5048649;28;20098;-70
2021/12/05 07:41:26;;;;;;;;;;;4.00;99.90;;;;;;5052227;28;20070;-70
2021/12/05 07:43:53;;;;;;;;;;;4.00;99.90;;;;;;5046821;28;20075;-69
2021/12/05 07:46:20;;;;;;;;;;;4.00;99.90;;;;;;5051117;28;20082;-71
2021/12/05 07:48:48;;;;;;;;;;;4.10;99.90;;;;;;5047202;28;20131;-70
2021/12/05 07:53:51;;;;;;;;;;;4.30;99.90;;;;;;4993429;28;20289;-72
2021/12/05 07:56:25;;;;;;;;;;;4.40;99.90;;;;;;4980277;28;20084;-72
2021/12/05 07:59:08;;;;;;;;;;;4.40;99.90;;;;;;4992341;28;20084;-73
2021/12/05 08:15:24;;;;;;;;;;;4.40;99.90;;;;;;4986484;28;20072;-74
2021/12/05 08:17:53;;;;;;;;;;;4.30;99.90;;;;;;4986112;28;20077;-73
2021/12/05 08:20:22;;;;;;;;;;;4.30;99.90;;;;;;4986947;28;20077;-73
2021/12/05 08:22:49;;;;;;;;;;;4.40;99.90;;;;;;4986747;28;20178;-74
2021/12/05 08:25:21;;;;;;;;;;;4.40;99.90;;;;;;4987320;28;20068;-73
2021/12/05 08:27:52;;;;;;;;;;;4.40;99.90;;;;;;4999579;28;21186;-73
2021/12/05 08:30:26;;;;;;;;;;;4.50;99.90;;;;;;4982365;28;21152;-74
2021/12/05 08:33:13;;;;;;;;;;;4.60;99.90;;;;;;4983647;28;20253;-74
2021/12/05 08:41:44;;;;;;;;;;;4.70;99.90;;;;;;5004743;28;20123;-74
2021/12/05 09:23:25;;;;;;;;;;;5.20;99.90;;;;;;4993021;28;21091;-74
2021/12/05 09:26:09;;;;;;;;;;;5.20;99.90;;;;;;4989288;28;20076;-74
2021/12/05 10:07:48;;;;;;;;;;;5.40;99.90;;;;;;4988064;28;20083;-74
2021/12/05 10:10:26;;;;;;;;;;;5.30;99.90;;;;;;5009572;28;20068;-74
2021/12/05 10:13:15;;;;;;;;;;;5.20;99.90;;;;;;4988891;28;20061;-74
2021/12/05 10:16:06;;;;;;;;;;;5.20;99.90;;;;;;5013338;28;20277;-74
2021/12/05 10:36:10;;;;;;;;;;;5.30;99.90;;;;;;4990512;28;20071;-75
2021/12/05 10:38:44;;;;;;;;;;;5.30;99.90;;;;;;5002232;28;20469;-73
2021/12/05 10:41:35;;;;;;;;;;;5.30;99.90;;;;;;4994370;28;21029;-75
2021/12/05 10:44:04;;;;;;;;;;;5.40;99.90;;;;;;5012423;28;20076;-75
2021/12/05 10:46:31;;;;;;;;;;;5.40;99.90;;;;;;5005607;28;21217;-74
2021/12/05 10:49:02;;;;;;;;;;;5.50;99.90;;;;;;4991679;28;20165;-74
2021/12/05 10:51:30;;;;;;;;;;;5.50;99.90;;;;;;4996201;28;20060;-75
2021/12/05 10:54:00;;;;;;;;;;;5.60;99.90;;;;;;4999576;28;21104;-74
2021/12/05 10:56:28;;;;;;;;;;;5.50;99.90;;;;;;5008601;28;21191;-74
2021/12/05 10:58:57;;;;;;;;;;;5.50;99.90;;;;;;4987771;28;20201;-75
2021/12/05 11:01:27;;;;;;;;;;;5.40;99.90;;;;;;4993063;28;20084;-73
2021/12/05 11:03:56;;;;;;;;;;;5.40;99.90;;;;;;4994298;28;20310;-73
2021/12/05 11:06:28;;;;;;;;;;;5.40;99.90;;;;;;5007591;28;20084;-73
2021/12/05 11:08:56;;;;;;;;;;;5.40;99.90;;;;;;4995898;28;20066;-75
2021/12/05 11:11:25;;;;;;;;;;;5.40;99.90;;;;;;4987059;28;20076;-74
2021/12/05 11:13:53;;;;;;;;;;;5.40;99.90;;;;;;4996966;28;20068;-75
2021/12/05 11:16:38;;;;;;;;;;;5.40;99.90;;;;;;5005410;28;20059;-73
2021/12/05 11:19:10;;;;;;;;;;;5.40;99.90;;;;;;4994008;28;20086;-73
2021/12/05 11:21:45;;;;;;;;;;;5.40;99.90;;;;;;4989221;28;20162;-73
2021/12/05 11:24:16;;;;;;;;;;;5.50;99.90;;;;;;4988264;28;20059;-73
2021/12/05 11:26:46;;;;;;;;;;;5.50;99.90;;;;;;4994082;28;20077;-74
2021/12/05 11:29:13;;;;;;;;;;;5.50;99.90;;;;;;4988969;28;20660;-74
2021/12/05 11:31:40;;;;;;;;;;;5.60;99.90;;;;;;4989157;28;20153;-73
2021/12/05 11:34:07;;;;;;;;;;;5.60;99.90;;;;;;4991841;28;21140;-74
2021/12/05 11:36:36;;;;;;;;;;;5.60;99.90;;;;;;4984703;28;20174;-73
2021/12/05 11:39:18;;;;;;;;;;;5.60;99.90;;;;;;4988851;28;20084;-74
2021/12/05 11:41:46;;;;;;;;;;;5.70;99.90;;;;;;5015773;28;20076;-75
2021/12/05 11:44:17;;;;;;;;;;;5.70;99.90;;;;;;4983960;28;20094;-75
2021/12/05 11:46:47;;;;;;;;;;;5.80;99.90;;;;;;4988794;28;20215;-75
2021/12/05 11:49:16;;;;;;;;;;;5.90;99.90;;;;;;4989843;28;20076;-73
2021/12/05 11:51:45;;;;;;;;;;;5.90;99.90;;;;;;4987078;28;20066;-73
2021/12/05 11:54:13;;;;;;;;;;;6.00;99.90;;;;;;4993276;28;21204;-73
2021/12/05 11:56:43;;;;;;;;;;;6.10;99.90;;;;;;4992433;28;20080;-73
2021/12/05 11:59:16;;;;;;;;;;;6.00;99.90;;;;;;4998290;28;21112;-73
2021/12/05 12:01:44;;;;;;;;;;;6.10;99.90;;;;;;4993123;28;20150;-73
2021/12/05 12:04:13;;;;;;;;;;;6.00;99.90;;;;;;4987428;28;20068;-73
2021/12/05 12:06:41;;;;;;;;;;;6.10;99.90;;;;;;4987755;28;21072;-74
2021/12/05 12:09:08;;;;;;;;;;;6.20;99.90;;;;;;4993136;28;20156;-75
2021/12/05 12:11:35;;;;;;;;;;;6.20;99.90;;;;;;4992503;28;20196;-74
2021/12/05 12:14:03;;;;;;;;;;;6.30;99.90;;;;;;4992534;28;20067;-74
2021/12/05 12:16:33;;;;;;;;;;;6.30;99.90;;;;;;4990687;28;20085;-74
2021/12/05 12:19:01;;;;;;;;;;;6.30;99.90;;;;;;4994928;28;20084;-74
2021/12/05 12:21:37;;;;;;;;;;;6.30;99.90;;;;;;4992374;28;20162;-73
2021/12/05 12:24:05;;;;;;;;;;;6.20;99.90;;;;;;4983175;28;20096;-74
2021/12/05 12:26:32;;;;;;;;;;;6.20;99.90;;;;;;4985440;28;21188;-74
2021/12/05 12:28:59;;;;;;;;;;;6.20;99.90;;;;;;4984497;28;20069;-74
2021/12/05 12:31:31;;;;;;;;;;;6.20;99.90;;;;;;5001483;28;20096;-73
2021/12/05 12:34:01;;;;;;;;;;;6.10;99.90;;;;;;5000181;28;21178;-74
2021/12/05 12:36:33;;;;;;;;;;;6.10;99.90;;;;;;4992947;28;21140;-74
2021/12/05 12:39:03;;;;;;;;;;;6.00;99.90;;;;;;4988214;28;21120;-74
2021/12/05 12:41:30;;;;;;;;;;;6.00;99.90;;;;;;4993881;28;20068;-74
2021/12/05 12:43:58;;;;;;;;;;;6.00;99.90;;;;;;4990287;28;20092;-74
2021/12/05 12:46:36;;;;;;;;;;;5.90;99.90;;;;;;4984654;28;20171;-73
2021/12/05 12:49:17;;;;;;;;;;;5.70;99.90;;;;;;5008801;28;21037;-74
2021/12/05 12:51:47;;;;;;;;;;;5.50;99.90;;;;;;4985298;28;20245;-72
2021/12/05 12:54:15;;;;;;;;;;;5.40;99.90;;;;;;4992352;28;20184;-73
2021/12/05 12:56:43;;;;;;;;;;;5.30;99.90;;;;;;4985963;28;20365;-73
2021/12/05 12:59:12;;;;;;;;;;;5.20;99.90;;;;;;5009284;28;21169;-73
2021/12/05 13:04:50;;;;;;;;;;;5.10;99.90;;;;;;4970345;28;20063;-74
2021/12/05 13:10:08;;;;;;;;;;;5.10;99.90;;;;;;5004136;28;20051;-74
2021/12/05 13:12:50;;;;;;;;;;;5.10;99.90;;;;;;5003350;28;20197;-74
2021/12/05 13:15:20;;;;;;;;;;;5.10;99.90;;;;;;5005781;28;20093;-74
2021/12/05 13:17:49;;;;;;;;;;;5.00;99.90;;;;;;5000729;28;20149;-75
2021/12/05 13:20:19;;;;;;;;;;;5.00;99.90;;;;;;4985722;28;20076;-75
2021/12/05 13:23:05;;;;;;;;;;;5.00;99.90;;;;;;4986440;28;21172;-73
2021/12/05 13:25:33;;;;;;;;;;;5.00;99.90;;;;;;4983605;28;20060;-73
2021/12/05 13:28:26;;;;;;;;;;;5.00;99.90;;;;;;4989278;28;20266;-74
2021/12/05 13:30:54;;;;;;;;;;;5.00;99.90;;;;;;4985523;28;20150;-74
2021/12/05 13:33:22;;;;;;;;;;;5.00;99.90;;;;;;4986809;28;20108;-74
2021/12/05 13:35:55;;;;;;;;;;;5.00;99.90;;;;;;4980454;28;20084;-73
2021/12/05 13:38:35;;;;;;;;;;;4.90;99.90;;;;;;4993511;28;21314;-73
2021/12/05 13:41:13;;;;;;;;;;;4.90;99.90;;;;;;4986355;28;20076;-74
2021/12/05 13:43:41;;;;;;;;;;;4.90;99.90;;;;;;5000604;28;20075;-74
2021/12/05 13:46:27;;;;;;;;;;;4.90;99.90;;;;;;4990777;28;21110;-75
2021/12/05 13:48:55;;;;;;;;;;;4.80;99.90;;;;;;4979201;28;20084;-74
2021/12/05 13:51:24;;;;;;;;;;;4.80;99.90;;;;;;4990609;28;20059;-74
2021/12/05 13:53:53;;;;;;;;;;;4.80;99.90;;;;;;4987390;28;20149;-74
2021/12/05 13:56:26;;;;;;;;;;;4.80;99.90;;;;;;4987487;28;21235;-74
2021/12/05 13:58:54;;;;;;;;;;;4.80;99.90;;;;;;4993147;28;20095;-72
2021/12/05 14:01:24;;;;;;;;;;;4.70;99.90;;;;;;5008522;28;20186;-74
2021/12/05 14:03:59;;;;;;;;;;;4.70;99.90;;;;;;4991460;28;20077;-75
2021/12/05 14:06:36;;;;;;;;;;;4.70;99.90;;;;;;4987889;28;20105;-76
2021/12/05 14:09:07;;;;;;;;;;;4.70;99.90;;;;;;4993921;28;20105;-74
2021/12/05 14:11:35;;;;;;;;;;;4.70;99.90;;;;;;4987347;28;21608;-74
2021/12/05 14:14:03;;;;;;;;;;;4.60;99.90;;;;;;4998624;28;20077;-74
2021/12/05 14:16:32;;;;;;;;;;;4.60;99.90;;;;;;4988233;28;20076;-75
2021/12/05 14:18:59;;;;;;;;;;;4.60;99.90;;;;;;4992286;28;20084;-75
2021/12/05 14:21:27;;;;;;;;;;;4.60;99.90;;;;;;4992790;28;20150;-75
2021/12/05 14:23:55;;;;;;;;;;;4.60;99.90;;;;;;4985752;28;20209;-75
2021/12/05 14:26:26;;;;;;;;;;;4.60;99.90;;;;;;5005354;28;20060;-74
2021/12/05 14:28:58;;;;;;;;;;;4.60;99.90;;;;;;4990602;28;21031;-75
2021/12/05 14:31:25;;;;;;;;;;;4.60;99.90;;;;;;5009102;28;21161;-74
2021/12/05 14:33:53;;;;;;;;;;;4.60;99.90;;;;;;4988326;28;20091;-75
2021/12/05 14:36:23;;;;;;;;;;;4.60;99.90;;;;;;4983515;28;20101;-75
2021/12/05 14:39:05;;;;;;;;;;;4.60;99.90;;;;;;5000581;28;20069;-75
2021/12/05 14:41:35;;;;;;;;;;;4.60;99.90;;;;;;5004674;28;20076;-76
2021/12/05 14:44:02;;;;;;;;;;;4.60;99.90;;;;;;4988593;28;20077;-74
2021/12/05 14:46:29;;;;;;;;;;;4.60;99.90;;;;;;4988026;28;20164;-75
2021/12/05 14:48:57;;;;;;;;;;;4.50;99.90;;;;;;4987077;28;20068;-75
2021/12/05 14:51:34;;;;;;;;;;;4.50;99.90;;;;;;4986832;28;20191;-73
2021/12/05 14:54:02;;;;;;;;;;;4.40;99.90;;;;;;4994057;28;21311;-75
2021/12/05 14:56:29;;;;;;;;;;;4.40;99.90;;;;;;4988519;28;20068;-74
2021/12/05 14:59:06;;;;;;;;;;;4.30;99.90;;;;;;5004894;28;20088;-74
2021/12/05 15:01:34;;;;;;;;;;;4.30;99.90;;;;;;4989272;28;21135;-75
2021/12/05 15:04:05;;;;;;;;;;;4.40;99.90;;;;;;5009039;28;20075;-74
2021/12/05 15:06:35;;;;;;;;;;;4.40;99.90;;;;;;4988212;28;20162;-74
2021/12/05 15:09:04;;;;;;;;;;;4.40;99.90;;;;;;4988730;28;20082;-73
2021/12/05 15:11:31;;;;;;;;;;;4.40;99.90;;;;;;4987645;28;20068;-74
2021/12/05 15:14:07;;;;;;;;;;;4.30;99.90;;;;;;5008550;28;20072;-73
2021/12/05 15:16:34;;;;;;;;;;;4.30;99.90;;;;;;4986988;28;20168;-73
2021/12/05 15:19:01;;;;;;;;;;;4.30;99.90;;;;;;4987783;28;20075;-74
2021/12/05 15:21:41;;;;;;;;;;;4.30;99.90;;;;;;4986085;28;20068;-74
2021/12/05 15:24:12;;;;;;;;;;;4.30;99.90;;;;;;5001243;28;21133;-74
2021/12/05 15:26:39;;;;;;;;;;;4.20;99.90;;;;;;4986025;28;20211;-72
2021/12/05 15:29:08;;;;;;;;;;;4.20;99.90;;;;;;4986080;28;21037;-74
2021/12/05 15:31:37;;;;;;;;;;;4.20;99.90;;;;;;4986266;28;21191;-73
2021/12/05 15:34:17;;;;;;;;;;;4.20;99.90;;;;;;4988941;28;21015;-73
2021/12/05 15:36:44;;;;;;;;;;;4.10;99.90;;;;;;4983730;28;20084;-73
2021/12/05 15:39:12;;;;;;;;;;;4.10;99.90;;;;;;4989412;28;20186;-73
2021/12/05 15:41:39;;;;;;;;;;;4.10;99.90;;;;;;5003373;28;20051;-73
2021/12/05 15:44:08;;;;;;;;;;;4.10;99.90;;;;;;4986890;28;20141;-72
2021/12/05 15:46:35;;;;;;;;;;;4.00;99.90;;;;;;4986358;28;20060;-72
2021/12/05 15:49:04;;;;;;;;;;;4.00;99.90;;;;;;4985936;28;20083;-74
2021/12/05 15:51:31;;;;;;;;;;;3.90;99.90;;;;;;4988184;28;21075;-73
2021/12/05 15:53:59;;;;;;;;;;;3.80;99.90;;;;;;4989052;28;20061;-74
2021/12/05 15:56:26;;;;;;;;;;;3.80;99.90;;;;;;4988153;28;20052;-73
2021/12/05 15:59:00;;;;;;;;;;;3.80;99.90;;;;;;4997568;28;21120;-74
2021/12/05 16:01:29;;;;;;;;;;;3.80;99.90;;;;;;4987688;28;20060;-73
2021/12/05 16:03:57;;;;;;;;;;;3.70;99.90;;;;;;4980212;28;20069;-74
2021/12/05 16:06:31;;;;;;;;;;;3.70;99.90;;;;;;5002846;28;20084;-72
2021/12/05 16:08:58;;;;;;;;;;;3.70;99.90;;;;;;4992539;28;20083;-74
2021/12/05 16:11:27;;;;;;;;;;;3.70;99.90;;;;;;4988418;28;20060;-74
2021/12/05 16:13:54;;;;;;;;;;;3.70;99.90;;;;;;4988183;28;20068;-74
2021/12/05 16:16:23;;;;;;;;;;;3.70;99.90;;;;;;4988171;28;20094;-74
2021/12/05 16:18:52;;;;;;;;;;;3.80;99.90;;;;;;4982827;28;20150;-74
2021/12/05 16:21:20;;;;;;;;;;;3.80;99.90;;;;;;4980710;28;20090;-75
2021/12/05 16:23:47;;;;;;;;;;;3.80;99.90;;;;;;5003559;28;21018;-72
2021/12/05 16:26:16;;;;;;;;;;;3.80;99.90;;;;;;4983946;28;20069;-72
2021/12/05 16:28:44;;;;;;;;;;;3.90;99.90;;;;;;4987796;28;20091;-72
2021/12/05 16:31:14;;;;;;;;;;;3.80;99.90;;;;;;4986593;28;20080;-72
2021/12/05 16:33:43;;;;;;;;;;;3.80;99.90;;;;;;4986696;28;21041;-72
2021/12/05 16:36:12;;;;;;;;;;;3.80;99.90;;;;;;5007569;28;20068;-75
2021/12/05 16:38:40;;;;;;;;;;;3.80;99.90;;;;;;4987694;28;20068;-73
2021/12/05 16:41:12;;;;;;;;;;;3.80;99.90;;;;;;4987912;28;20068;-73
2021/12/05 16:43:46;;;;;;;;;;;3.80;99.90;;;;;;4979417;28;20060;-73
2021/12/05 16:46:14;;;;;;;;;;;3.80;99.90;;;;;;4988256;28;20085;-72
2021/12/05 16:48:42;;;;;;;;;;;3.80;99.90;;;;;;4987511;28;20076;-73
2021/12/05 16:51:15;;;;;;;;;;;3.80;99.90;;;;;;5007861;28;20068;-73
2021/12/05 16:53:46;;;;;;;;;;;3.70;99.90;;;;;;4987710;28;20165;-74
2021/12/05 16:56:14;;;;;;;;;;;3.70;99.90;;;;;;4987541;28;20083;-73
2021/12/05 16:58:42;;;;;;;;;;;3.70;99.90;;;;;;4987309;28;20069;-73
2021/12/05 17:01:15;;;;;;;;;;;3.70;99.90;;;;;;4988180;28;20075;-73
2021/12/05 17:03:44;;;;;;;;;;;3.70;99.90;;;;;;5006784;28;20186;-73
2021/12/05 17:06:12;;;;;;;;;;;3.80;99.90;;;;;;4987771;28;20075;-73
2021/12/05 17:08:45;;;;;;;;;;;3.70;99.90;;;;;;4987017;28;20067;-73
2021/12/05 17:11:13;;;;;;;;;;;3.80;99.90;;;;;;4990732;28;20058;-73
2021/12/05 17:13:48;;;;;;;;;;;3.70;99.90;;;;;;4999439;28;20075;-73
2021/12/05 17:16:17;;;;;;;;;;;3.70;99.90;;;;;;4984907;28;20077;-74
2021/12/05 17:18:45;;;;;;;;;;;3.70;99.90;;;;;;4987217;28;20077;-73
2021/12/05 17:21:14;;;;;;;;;;;3.60;99.90;;;;;;4988013;28;20077;-73
2021/12/05 17:23:44;;;;;;;;;;;3.60;99.90;;;;;;5009327;28;20068;-73
2021/12/05 17:26:13;;;;;;;;;;;3.60;99.90;;;;;;4987674;28;20103;-73
2021/12/05 17:28:42;;;;;;;;;;;3.60;99.90;;;;;;4987770;28;20082;-74
2021/12/05 17:31:11;;;;;;;;;;;3.60;99.90;;;;;;4988803;28;20074;-73
2021/12/05 17:33:40;;;;;;;;;;;3.60;99.90;;;;;;4990215;28;21069;-73
2021/12/05 17:36:25;;;;;;;;;;;3.70;99.90;;;;;;5011241;28;20075;-73
2021/12/05 17:38:55;;;;;;;;;;;3.60;99.90;;;;;;4991845;28;20075;-73
2021/12/05 17:41:23;;;;;;;;;;;3.70;99.90;;;;;;4994257;28;20068;-73
2021/12/05 17:43:50;;;;;;;;;;;3.70;99.90;;;;;;4988506;28;21260;-73
2021/12/05 17:46:18;;;;;;;;;;;3.70;99.90;;;;;;5010185;28;20076;-74
2021/12/05 17:48:45;;;;;;;;;;;3.70;99.90;;;;;;4990472;28;20083;-74
2021/12/05 17:51:12;;;;;;;;;;;3.70;99.90;;;;;;4991904;28;20077;-73
2021/12/05 17:53:40;;;;;;;;;;;3.70;99.90;;;;;;4990628;28;20060;-74
2021/12/05 17:56:15;;;;;;;;;;;3.70;99.90;;;;;;4990039;28;20150;-73
2021/12/05 18:04:11;;;;;;;;;;;3.70;99.90;;;;;;4984679;28;20065;-72
2021/12/05 18:06:39;;;;;;;;;;;3.70;99.90;;;;;;4989984;28;20077;-74
2021/12/05 18:09:06;;;;;;;;;;;3.70;99.90;;;;;;4988126;28;20066;-73
2021/12/05 18:11:35;;;;;;;;;;;3.70;99.90;;;;;;4988553;28;20077;-74
2021/12/05 18:14:04;;;;;;;;;;;3.60;99.90;;;;;;4988357;28;21107;-75
2021/12/05 18:16:31;;;;;;;;;;;3.60;99.90;;;;;;4987515;28;21155;-75
2021/12/05 18:19:00;;;;;;;;;;;3.60;99.90;;;;;;4989045;28;20074;-72
2021/12/05 18:21:27;;;;;;;;;;;3.60;99.90;;;;;;4988572;28;21182;-73
2021/12/05 18:23:56;;;;;;;;;;;3.60;99.90;;;;;;4988167;28;20186;-73
2021/12/05 18:26:23;;;;;;;;;;;3.50;99.90;;;;;;4989036;28;21234;-73
2021/12/05 18:28:52;;;;;;;;;;;3.60;99.90;;;;;;4988024;28;20225;-73
2021/12/05 18:31:22;;;;;;;;;;;3.60;99.90;;;;;;4987908;28;20187;-72
2021/12/05 18:33:52;;;;;;;;;;;3.50;99.90;;;;;;5014199;28;20052;-74
2021/12/05 18:36:20;;;;;;;;;;;3.50;99.90;;;;;;5013975;28;20175;-73
2021/12/05 18:38:47;;;;;;;;;;;3.50;99.90;;;;;;5012513;28;20069;-73
2021/12/05 18:41:16;;;;;;;;;;;3.50;99.90;;;;;;4993145;28;20077;-74
2021/12/05 18:43:44;;;;;;;;;;;3.50;99.90;;;;;;4988836;28;20060;-72
2021/12/05 18:46:13;;;;;;;;;;;3.50;99.90;;;;;;4995655;28;20068;-72
2021/12/05 18:48:42;;;;;;;;;;;3.50;99.90;;;;;;4987372;28;20218;-73
2021/12/05 18:51:10;;;;;;;;;;;3.40;99.90;;;;;;4988213;28;20286;-75
2021/12/05 18:53:37;;;;;;;;;;;3.40;99.90;;;;;;4987900;28;20117;-75
2021/12/05 18:56:04;;;;;;;;;;;3.30;99.90;;;;;;4988442;28;20060;-74
2021/12/05 18:58:33;;;;;;;;;;;3.30;99.90;;;;;;4986796;28;20238;-74
2021/12/05 19:06:38;;;;;;;;;;;3.10;99.90;;;;;;4987717;28;21136;-74
2021/12/05 19:09:15;;;;;;;;;;;3.10;99.90;;;;;;4987605;28;20069;-73
2021/12/05 19:11:45;;;;;;;;;;;3.10;99.90;;;;;;4987291;28;20062;-73
2021/12/05 19:14:14;;;;;;;;;;;3.10;99.90;;;;;;4977154;28;20221;-74
2021/12/05 19:16:41;;;;;;;;;;;3.10;99.90;;;;;;4987009;28;20068;-75
2021/12/05 19:19:10;;;;;;;;;;;3.20;99.90;;;;;;4988315;28;20068;-74
2021/12/05 19:21:38;;;;;;;;;;;3.20;99.90;;;;;;4985162;28;20067;-74
2021/12/05 19:24:05;;;;;;;;;;;3.20;99.90;;;;;;4989031;28;20097;-74
2021/12/05 19:26:32;;;;;;;;;;;3.20;99.90;;;;;;4989152;28;20106;-74
2021/12/05 19:29:00;;;;;;;;;;;3.20;99.90;;;;;;4989024;28;21086;-73
2021/12/05 19:31:27;;;;;;;;;;;3.20;99.90;;;;;;4989081;28;20083;-74
2021/12/05 19:33:54;;;;;;;;;;;3.20;99.90;;;;;;4989150;28;20145;-74